Time;durP1;ratioP1;P1;durP2;ratioP2;P2;SDS_P1;SDS_P2;PMS_P1;PMS_P2;Temp;Humidity;BMP_temperature;BMP_pressure;BME280_temperature;BME280_humidity;BME280_pressure;Samples;Min_cycle;Max_cycle;Signal;HPM_P1;HPM_P2
2022/03/25 04:00:41;;;;;;;22.10;18.17;;;1.40;99.90;;;;;;5797828;23;20229;-75
2022/03/25 04:03:07;;;;;;;26.30;19.97;;;1.40;99.90;;;;;;4951797;29;20186;-76
2022/03/25 04:05:33;;;;;;;22.93;19.70;;;1.30;99.90;;;;;;4952441;28;20232;-75
2022/03/25 04:07:58;;;;;;;24.53;19.67;;;1.40;99.90;;;;;;4952358;28;20187;-75
2022/03/25 04:10:24;;;;;;;24.03;21.53;;;1.30;99.90;;;;;;4952590;28;20182;-75
2022/03/25 04:12:50;;;;;;;21.60;19.17;;;1.20;99.90;;;;;;4951307;28;20194;-75
2022/03/25 04:15:16;;;;;;;24.83;19.90;;;1.10;99.90;;;;;;4967745;28;20241;-76
2022/03/25 04:17:44;;;;;;;22.47;19.70;;;1.20;99.90;;;;;;4952420;28;20181;-75
2022/03/25 04:20:15;;;;;;;21.83;19.23;;;1.20;99.90;;;;;;4951401;29;20798;-75
2022/03/25 04:22:45;;;;;;;22.87;19.83;;;1.10;99.90;;;;;;4952657;28;20269;-75
2022/03/25 04:25:11;;;;;;;23.07;19.27;;;1.20;99.90;;;;;;4952671;29;20182;-76
2022/03/25 04:27:54;;;;;;;25.57;19.17;;;1.20;99.90;;;;;;4950922;28;20189;-75
2022/03/25 04:30:25;;;;;;;21.33;17.77;;;1.10;99.90;;;;;;4956350;28;20642;-75
2022/03/25 04:32:52;;;;;;;26.00;22.73;;;1.10;99.90;;;;;;4954916;28;20615;-75
2022/03/25 04:35:19;;;;;;;22.67;20.17;;;1.00;99.90;;;;;;4959399;29;20213;-75
2022/03/25 04:37:46;;;;;;;23.53;20.57;;;1.00;99.90;;;;;;4956695;28;20397;-75
2022/03/25 04:40:15;;;;;;;22.73;19.70;;;1.00;99.90;;;;;;4954755;29;20213;-75
2022/03/25 04:42:41;;;;;;;25.07;20.90;;;1.10;99.90;;;;;;4955935;28;20182;-75
2022/03/25 04:45:07;;;;;;;24.57;20.87;;;1.00;99.90;;;;;;4954772;29;20192;-75
2022/03/25 04:47:33;;;;;;;25.20;19.83;;;0.90;99.90;;;;;;4970524;28;20673;-75
2022/03/25 04:49:58;;;;;;;26.43;19.83;;;0.80;99.90;;;;;;4955600;28;20245;-75
2022/03/25 04:52:25;;;;;;;24.00;20.73;;;0.80;99.90;;;;;;4954020;29;20229;-76
2022/03/25 04:54:51;;;;;;;33.20;30.03;;;0.70;99.90;;;;;;4952681;28;20185;-75
2022/03/25 04:57:17;;;;;;;37.97;23.63;;;0.70;99.90;;;;;;4954363;29;20189;-75
2022/03/25 04:59:43;;;;;;;32.77;28.63;;;0.70;99.90;;;;;;4970323;28;20232;-75
2022/03/25 05:02:10;;;;;;;31.03;27.87;;;0.80;99.90;;;;;;4954812;29;20304;-74
2022/03/25 05:04:36;;;;;;;28.00;25.00;;;0.70;99.90;;;;;;4950853;28;20213;-75
2022/03/25 05:07:02;;;;;;;28.80;25.93;;;0.70;99.90;;;;;;4948807;29;20186;-75
2022/03/25 05:09:28;;;;;;;27.80;24.83;;;0.70;99.90;;;;;;4970487;28;20649;-75
2022/03/25 05:11:54;;;;;;;33.47;28.23;;;0.70;99.90;;;;;;4970262;28;20222;-75
2022/03/25 05:14:20;;;;;;;36.50;32.97;;;0.70;99.90;;;;;;4953045;28;20193;-75
2022/03/25 05:16:52;;;;;;;37.43;33.83;;;0.70;99.90;;;;;;4934689;29;20574;-75
2022/03/25 05:19:21;;;;;;;28.70;25.77;;;0.70;99.90;;;;;;4934759;29;20221;-76
2022/03/25 05:21:47;;;;;;;35.07;26.43;;;0.70;99.90;;;;;;4934708;29;20558;-75
2022/03/25 05:24:13;;;;;;;33.37;29.37;;;0.70;99.90;;;;;;4966418;28;20211;-76
2022/03/25 05:26:39;;;;;;;33.00;29.60;;;0.70;99.90;;;;;;4970016;28;20221;-75
2022/03/25 05:29:05;;;;;;;33.83;28.33;;;0.60;99.90;;;;;;4969763;28;20181;-75
2022/03/25 05:31:31;;;;;;;31.00;22.83;;;0.60;99.90;;;;;;4969932;28;20583;-75
2022/03/25 05:33:57;;;;;;;28.93;24.73;;;0.70;99.90;;;;;;4941303;28;20289;-75
2022/03/25 05:36:23;;;;;;;30.33;27.13;;;0.80;99.90;;;;;;4934555;29;20733;-76
2022/03/25 05:38:51;;;;;;;30.57;27.53;;;0.90;99.90;;;;;;4935319;29;20643;-75
2022/03/25 05:41:17;;;;;;;36.47;33.07;;;0.90;99.90;;;;;;4934504;29;20252;-75
2022/03/25 05:43:43;;;;;;;33.47;30.17;;;0.90;99.90;;;;;;4948192;29;20666;-76
2022/03/25 05:46:09;;;;;;;24.20;20.57;;;1.00;99.90;;;;;;4971581;28;20190;-75
2022/03/25 05:48:34;;;;;;;25.00;18.83;;;1.10;99.90;;;;;;4967634;28;20189;-75
2022/03/25 05:51:00;;;;;;;31.80;21.00;;;1.20;99.90;;;;;;4955123;28;20276;-75
2022/03/25 05:53:26;;;;;;;25.87;22.43;;;1.30;99.90;;;;;;4953890;28;20277;-75
2022/03/25 05:55:53;;;;;;;28.63;25.40;;;1.40;99.90;;;;;;4954415;28;20280;-76
2022/03/25 05:58:18;;;;;;;24.50;21.73;;;1.50;99.90;;;;;;4968872;28;20189;-76
2022/03/25 06:00:44;;;;;;;28.03;24.60;;;1.50;99.90;;;;;;4968966;28;20218;-77
2022/03/25 06:03:10;;;;;;;29.43;20.23;;;1.70;99.90;;;;;;4953276;28;20181;-75
2022/03/25 06:05:36;;;;;;;23.63;20.23;;;1.80;99.90;;;;;;4953134;28;20194;-75
2022/03/25 06:08:02;;;;;;;32.27;21.83;;;1.80;99.90;;;;;;4956679;28;20603;-75
2022/03/25 06:10:28;;;;;;;27.20;22.97;;;2.00;99.90;;;;;;4969267;28;20197;-76
2022/03/25 06:12:54;;;;;;;28.47;21.90;;;2.10;99.90;;;;;;4950377;28;20193;-75
2022/03/25 06:15:19;;;;;;;27.43;24.17;;;2.20;99.90;;;;;;4949990;28;20280;-76
2022/03/25 06:17:48;;;;;;;38.07;26.07;;;2.30;99.90;;;;;;4949012;29;20190;-75
2022/03/25 06:20:18;;;;;;;31.43;25.33;;;2.50;99.90;;;;;;4936724;29;20218;-73
2022/03/25 06:22:44;;;;;;;33.27;24.97;;;2.60;99.90;;;;;;4959683;28;20185;-72
2022/03/25 06:25:12;;;;;;;31.53;21.27;;;2.80;99.90;;;;;;4973792;28;20200;-73
2022/03/25 06:27:52;;;;;;;32.73;26.83;;;2.90;99.90;;;;;;4974220;28;20668;-73
2022/03/25 06:30:20;;;;;;;27.07;20.53;;;3.10;99.90;;;;;;4975553;28;20282;-73
2022/03/25 06:32:46;;;;;;;35.20;19.03;;;3.30;99.90;;;;;;4954836;28;20193;-73
2022/03/25 06:35:13;;;;;;;31.33;22.67;;;3.50;99.90;;;;;;4955553;28;20189;-73
2022/03/25 06:37:39;;;;;;;27.23;22.00;;;3.60;99.90;;;;;;4967245;28;20817;-73
2022/03/25 06:40:07;;;;;;;25.07;18.17;;;3.80;99.90;;;;;;4971319;28;20588;-72
2022/03/25 06:42:37;;;;;;;23.80;20.60;;;4.00;99.90;;;;;;4957258;28;20206;-73
2022/03/25 06:45:04;;;;;;;25.37;19.63;;;4.20;99.90;;;;;;4953193;28;20611;-73
2022/03/25 06:47:30;;;;;;;29.87;24.97;;;4.80;99.90;;;;;;4952803;28;20245;-73
2022/03/25 06:49:56;;;;;;;29.67;26.57;;;5.40;99.90;;;;;;4953454;28;20288;-73
2022/03/25 06:52:23;;;;;;;28.07;20.67;;;6.10;99.90;;;;;;4938812;28;20745;-73
2022/03/25 06:54:49;;;;;;;33.93;23.17;;;6.70;99.90;;;;;;4933726;29;20555;-73
2022/03/25 06:57:15;;;;;;;24.80;20.30;;;7.30;99.90;;;;;;4933978;29;20182;-74
2022/03/25 06:59:42;;;;;;;27.20;23.67;;;7.80;99.90;;;;;;4934026;29;20210;-74
2022/03/25 07:02:09;;;;;;;28.40;25.53;;;8.30;99.90;;;;;;4943104;29;20218;-74
2022/03/25 07:04:36;;;;;;;22.50;19.77;;;8.60;99.90;;;;;;4952680;28;20192;-75
2022/03/25 07:07:04;;;;;;;22.87;19.37;;;8.90;99.90;;;;;;4952974;28;20194;-73
2022/03/25 07:09:30;;;;;;;22.87;20.40;;;9.20;99.90;;;;;;4952650;28;20197;-74
2022/03/25 07:11:57;;;;;;;22.73;19.10;;;9.40;99.90;;;;;;4953061;28;20248;-74
2022/03/25 07:14:23;;;;;;;20.90;18.70;;;9.70;99.90;;;;;;4953330;28;20551;-73
2022/03/25 07:16:49;;;;;;;23.80;18.13;;;9.70;99.90;;;;;;4951562;28;20236;-72
2022/03/25 07:19:15;;;;;;;21.93;19.27;;;9.60;99.90;;;;;;4953008;28;20189;-73
2022/03/25 07:21:40;;;;;;;23.17;19.33;;;9.50;99.90;;;;;;4947834;28;20198;-73
2022/03/25 07:24:06;;;;;;;26.07;18.93;;;9.90;99.90;;;;;;4933657;29;20193;-73
2022/03/25 07:26:32;;;;;;;23.90;18.77;;;9.60;99.90;;;;;;4949687;29;20253;-73
2022/03/25 07:28:58;;;;;;;22.90;18.77;;;9.70;99.90;;;;;;4934430;29;20526;-73
2022/03/25 07:31:28;;;;;;;22.30;19.27;;;9.70;99.90;;;;;;4936094;29;20264;-73
2022/03/25 07:33:57;;;;;;;24.97;20.23;;;9.60;99.90;;;;;;4952954;28;20221;-74
2022/03/25 07:36:24;;;;;;;25.00;20.27;;;9.90;99.90;;;;;;4953076;28;20589;-73
2022/03/25 07:38:50;;;;;;;26.93;24.03;;;10.20;99.90;;;;;;4967376;28;20190;-73
2022/03/25 07:41:16;;;;;;;26.93;22.77;;;10.50;99.90;;;;;;4951905;28;20259;-73
2022/03/25 07:43:42;;;;;;;25.20;21.40;;;10.70;99.90;;;;;;4932765;29;20190;-73
2022/03/25 07:46:07;;;;;;;25.60;19.97;;;10.70;99.30;;;;;;4933604;29;20179;-73
2022/03/25 07:48:33;;;;;;;24.70;22.20;;;11.20;98.70;;;;;;4933083;29;20217;-74
2022/03/25 07:50:59;;;;;;;30.47;21.97;;;11.60;97.20;;;;;;4933102;29;20213;-74
2022/03/25 07:53:25;;;;;;;24.80;20.43;;;12.00;97.00;;;;;;4950894;29;20710;-74
2022/03/25 07:55:51;;;;;;;26.17;20.27;;;12.30;95.80;;;;;;4952759;28;20187;-74
2022/03/25 07:58:21;;;;;;;21.63;19.23;;;12.50;95.50;;;;;;4967482;28;20184;-74
2022/03/25 08:00:51;;;;;;;23.70;20.27;;;12.70;94.50;;;;;;4951826;28;20221;-75
2022/03/25 08:03:18;;;;;;;26.53;19.57;;;12.90;93.10;;;;;;4953136;28;20182;-71
2022/03/25 08:05:45;;;;;;;24.63;18.23;;;12.90;92.00;;;;;;4937208;29;20186;-71
2022/03/25 08:08:11;;;;;;;23.17;18.07;;;13.00;90.10;;;;;;4951456;28;20214;-71
2022/03/25 08:10:41;;;;;;;22.73;17.53;;;12.80;89.60;;;;;;4951909;28;20209;-70
2022/03/25 08:13:07;;;;;;;23.23;16.70;;;12.80;89.00;;;;;;4950720;29;20193;-70
2022/03/25 08:15:34;;;;;;;33.90;22.40;;;12.70;89.60;;;;;;4955997;28;20216;-70
2022/03/25 08:18:09;;;;;;;26.70;19.13;;;12.50;90.00;;;;;;4955954;28;20189;-71
2022/03/25 08:20:41;;;;;;;33.43;21.00;;;12.90;88.50;;;;;;4955893;28;20638;-70
2022/03/25 08:23:13;;;;;;;23.10;17.97;;;13.20;88.30;;;;;;4941186;28;20194;-69
2022/03/25 08:28:25;;;;;;;25.90;19.67;;;13.50;85.70;;;;;;4936600;29;20276;-69
2022/03/25 08:30:52;;;;;;;28.67;20.70;;;14.10;83.50;;;;;;4936694;29;20231;-70
2022/03/25 08:33:19;;;;;;;25.87;20.03;;;14.40;80.70;;;;;;4952330;29;20197;-70
2022/03/25 08:35:45;;;;;;;25.50;20.40;;;14.00;79.80;;;;;;4970711;28;20268;-70
2022/03/25 08:38:12;;;;;;;25.63;19.37;;;13.90;79.50;;;;;;4952673;28;20197;-70
2022/03/25 08:40:39;;;;;;;32.77;23.37;;;14.30;78.50;;;;;;4955452;28;20257;-70
2022/03/25 08:43:05;;;;;;;27.73;19.70;;;14.50;77.60;;;;;;4954931;28;20181;-70
2022/03/25 08:45:32;;;;;;;25.80;20.27;;;14.60;76.30;;;;;;4955577;28;20601;-70
2022/03/25 08:47:59;;;;;;;27.23;18.67;;;14.70;75.60;;;;;;4969997;28;20701;-70
2022/03/25 08:50:25;;;;;;;28.73;20.30;;;14.70;74.10;;;;;;4955130;28;20186;-71
2022/03/25 08:52:52;;;;;;;30.03;20.77;;;15.10;73.10;;;;;;4942850;28;20179;-70
2022/03/25 08:55:20;;;;;;;27.07;18.83;;;15.40;71.50;;;;;;4935205;29;20182;-70
2022/03/25 08:57:47;;;;;;;28.27;20.00;;;15.50;70.40;;;;;;4935845;29;20249;-70
2022/03/25 09:00:15;;;;;;;26.23;19.03;;;15.70;70.00;;;;;;4950456;29;20214;-73
2022/03/25 09:02:44;;;;;;;31.57;20.93;;;16.10;69.10;;;;;;4938409;29;20190;-70
2022/03/25 09:05:12;;;;;;;28.60;22.10;;;16.30;67.30;;;;;;4950986;28;20193;-72
2022/03/25 09:07:39;;;;;;;29.03;22.63;;;16.60;65.10;;;;;;4934444;29;20214;-70
2022/03/25 09:10:07;;;;;;;32.80;25.57;;;16.60;65.10;;;;;;4936304;29;20554;-71
2022/03/25 09:12:33;;;;;;;34.47;26.37;;;16.80;62.60;;;;;;4944269;29;20241;-71
2022/03/25 09:15:00;;;;;;;32.27;23.63;;;17.00;62.40;;;;;;4971068;28;20186;-71
2022/03/25 09:17:26;;;;;;;31.83;24.17;;;17.20;60.90;;;;;;4972265;28;20186;-71
2022/03/25 09:19:53;;;;;;;30.07;24.93;;;17.40;62.20;;;;;;4972887;28;20202;-76
2022/03/25 09:22:19;;;;;;;29.97;23.77;;;18.00;59.70;;;;;;4963013;28;20241;-71
2022/03/25 09:24:45;;;;;;;32.60;26.47;;;18.10;58.20;;;;;;4935955;29;20202;-71
2022/03/25 09:27:11;;;;;;;33.47;23.37;;;18.20;57.60;;;;;;4950725;29;20191;-71
2022/03/25 09:29:37;;;;;;;38.23;23.83;;;18.50;55.60;;;;;;4948827;29;20209;-71
2022/03/25 09:32:04;;;;;;;32.13;22.38;;;18.80;55.20;;;;;;4955343;28;20744;-72
2022/03/25 09:37:14;;;;;;;33.17;24.30;;;19.20;49.90;;;;;;4955428;29;20214;-72
2022/03/25 09:39:40;;;;;;;36.40;24.75;;;19.30;50.10;;;;;;4942059;28;20199;-72
2022/03/25 09:42:07;;;;;;;35.92;24.42;;;19.60;49.90;;;;;;4937261;29;20214;-73
2022/03/25 09:44:34;;;;;;;33.53;25.35;;;20.10;49.30;;;;;;4934519;29;20662;-73
2022/03/25 09:47:01;;;;;;;36.30;25.83;;;20.40;45.50;;;;;;4935161;29;20205;-73
2022/03/25 09:49:27;;;;;;;33.58;24.70;;;20.90;45.90;;;;;;4946380;29;20262;-73
2022/03/25 09:51:53;;;;;;;33.20;24.47;;;20.90;46.60;;;;;;4954245;28;20202;-72
2022/03/25 09:54:20;;;;;;;35.40;24.42;;;20.70;46.90;;;;;;4955147;28;20182;-73
2022/03/25 09:56:46;;;;;;;34.83;23.42;;;20.60;48.20;;;;;;4953965;29;20312;-73
2022/03/25 09:59:18;;;;;;;30.90;23.13;;;21.00;46.70;;;;;;4944781;28;20266;-73
2022/03/25 10:01:44;;;;;;;32.65;23.25;;;21.40;46.80;;;;;;4934361;29;20218;-72
2022/03/25 10:04:42;;;;;;;29.58;22.70;;;21.70;44.70;;;;;;4934996;29;20607;-73
2022/03/25 10:07:19;;;;;;;29.40;23.48;;;22.20;46.20;;;;;;4934570;29;20186;-73
2022/03/25 10:09:47;;;;;;;29.17;23.88;;;22.40;43.50;;;;;;4947966;29;20217;-73
2022/03/25 10:12:26;;;;;;;29.85;24.55;;;21.30;44.90;;;;;;4954021;28;20677;-73
2022/03/25 10:15:18;;;;;;;29.45;23.50;;;21.00;46.70;;;;;;4953893;28;20213;-72
2022/03/25 10:17:53;;;;;;;32.63;25.08;;;21.70;45.70;;;;;;4952731;29;20193;-72
2022/03/25 10:20:22;;;;;;;29.65;24.55;;;22.00;45.00;;;;;;4936061;28;20780;-71
2022/03/25 10:23:08;;;;;;;31.23;26.30;;;22.00;44.00;;;;;;4934664;29;20189;-71
2022/03/25 10:25:47;;;;;;;29.40;24.77;;;22.50;44.60;;;;;;4934556;29;20201;-74
2022/03/25 10:28:32;;;;;;;30.38;23.60;;;23.20;42.30;;;;;;4948997;29;20190;-73
2022/03/25 10:31:00;;;;;;;28.17;22.15;;;23.30;42.00;;;;;;4968468;28;20225;-73
2022/03/25 10:33:42;;;;;;;29.90;22.48;;;23.20;41.70;;;;;;4968552;28;20269;-73
2022/03/25 10:36:10;;;;;;;34.50;23.73;;;23.40;40.20;;;;;;4968164;28;20536;-72
2022/03/25 10:38:58;;;;;;;31.65;24.77;;;23.60;41.40;;;;;;4941993;28;20619;-73
2022/03/25 10:41:46;;;;;;;33.78;24.23;;;23.30;42.00;;;;;;4934576;29;20220;-72
2022/03/25 10:44:12;;;;;;;31.20;23.73;;;23.70;42.90;;;;;;4935823;29;20182;-75
2022/03/25 10:46:40;;;;;;;32.88;24.10;;;23.60;41.60;;;;;;4951901;28;20177;-75
2022/03/25 10:49:11;;;;;;;30.40;23.42;;;24.00;41.00;;;;;;4972079;28;20181;-74
2022/03/25 10:51:42;;;;;;;36.10;25.38;;;24.40;40.50;;;;;;4956464;28;20749;-75
2022/03/25 10:54:13;;;;;;;32.47;24.45;;;23.80;40.70;;;;;;4953642;28;20245;-75
2022/03/25 10:56:48;;;;;;;29.38;24.05;;;23.00;42.80;;;;;;4968224;28;20185;-75
2022/03/25 10:59:21;;;;;;;30.45;22.95;;;22.80;43.00;;;;;;4953252;28;20185;-75
2022/03/25 11:01:50;;;;;;;33.20;25.42;;;23.20;41.90;;;;;;4936747;28;20214;-73
2022/03/25 11:04:16;;;;;;;31.67;25.30;;;23.00;41.90;;;;;;4933425;29;20245;-75
2022/03/25 11:06:43;;;;;;;31.75;24.73;;;22.90;42.90;;;;;;4933869;29;20186;-74
2022/03/25 11:09:09;;;;;;;31.50;23.95;;;23.00;43.40;;;;;;4933941;29;20242;-74
2022/03/25 11:11:37;;;;;;;29.05;23.42;;;23.80;41.80;;;;;;4948172;29;20205;-74
2022/03/25 11:14:04;;;;;;;33.35;22.25;;;24.70;39.80;;;;;;4951524;29;20201;-74
2022/03/25 11:16:33;;;;;;;30.25;21.25;;;25.60;36.80;;;;;;4943903;28;20194;-84
2022/03/25 11:18:59;;;;;;;29.65;21.65;;;26.00;37.70;;;;;;4933732;29;20257;-74
2022/03/25 11:21:27;;;;;;;29.63;21.02;;;26.40;37.50;;;;;;4942235;29;20608;-69
2022/03/25 11:23:57;;;;;;;28.58;21.25;;;26.70;36.60;;;;;;4954308;28;20220;-76
2022/03/25 11:26:26;;;;;;;31.90;23.13;;;27.30;34.30;;;;;;4952120;29;20289;-76
2022/03/25 11:28:56;;;;;;;29.95;21.90;;;27.00;32.90;;;;;;4952668;28;20178;-76
2022/03/25 11:31:24;;;;;;;29.85;21.65;;;27.10;32.30;;;;;;4938611;29;20206;-76
2022/03/25 11:34:09;;;;;;;27.98;21.98;;;27.70;31.90;;;;;;4933679;29;20197;-76
2022/03/25 11:36:40;;;;;;;29.83;23.33;;;27.50;33.30;;;;;;4932382;29;20182;-76
2022/03/25 11:39:20;;;;;;;28.38;22.33;;;27.60;32.20;;;;;;4933152;29;20714;-76
2022/03/25 11:41:46;;;;;;;25.25;22.13;;;28.10;32.00;;;;;;4948837;29;20788;-76
2022/03/25 11:44:14;;;;;;;30.35;24.85;;;28.50;31.40;;;;;;4951772;29;20260;-74
2022/03/25 11:46:59;;;;;;;27.50;22.52;;;28.00;31.30;;;;;;4947721;28;20185;-77
2022/03/25 11:49:29;;;;;;;30.40;23.02;;;28.50;32.30;;;;;;4949863;29;20217;-76
2022/03/25 11:51:55;;;;;;;34.00;22.55;;;28.60;31.70;;;;;;4951726;28;20197;-74
2022/03/25 11:54:41;;;;;;;28.35;22.70;;;28.20;30.80;;;;;;4951442;29;20186;-74
2022/03/25 11:57:25;;;;;;;28.73;23.60;;;28.40;31.20;;;;;;4952449;28;20646;-73
2022/03/25 11:59:52;;;;;;;28.10;21.50;;;28.60;29.80;;;;;;4952641;28;20209;-73
2022/03/25 12:02:30;;;;;;;26.85;20.63;;;29.90;28.60;;;;;;4951853;29;20217;-73
2022/03/25 12:05:00;;;;;;;29.77;21.67;;;29.40;29.10;;;;;;4952509;28;20185;-74
2022/03/25 12:07:26;;;;;;;29.80;23.08;;;28.40;30.10;;;;;;4948172;29;20190;-74
2022/03/25 12:09:52;;;;;;;27.98;21.95;;;28.30;28.90;;;;;;4945466;28;20178;-74
2022/03/25 12:12:18;;;;;;;33.25;22.85;;;28.70;28.60;;;;;;4950389;29;20704;-74
2022/03/25 12:15:07;;;;;;;25.05;21.00;;;29.50;28.20;;;;;;4967665;28;20186;-74
2022/03/25 12:17:34;;;;;;;26.73;20.08;;;29.70;27.40;;;;;;4951796;29;20185;-73
2022/03/25 12:20:01;;;;;;;29.73;20.55;;;28.80;27.40;;;;;;4951865;28;20582;-73
2022/03/25 12:22:29;;;;;;;25.67;19.38;;;27.50;28.20;;;;;;4940857;29;20230;-73
2022/03/25 12:25:11;;;;;;;29.33;22.00;;;27.00;28.10;;;;;;4944052;29;20178;-73
2022/03/25 12:27:38;;;;;;;26.38;20.52;;;26.60;29.00;;;;;;4934753;29;20702;-73
2022/03/25 12:30:05;;;;;;;30.25;20.60;;;27.30;28.20;;;;;;4936215;29;20211;-73
2022/03/25 12:32:33;;;;;;;24.95;21.60;;;28.00;27.70;;;;;;4966839;28;20282;-74
2022/03/25 12:35:07;;;;;;;25.88;20.92;;;28.00;27.80;;;;;;4952957;28;20189;-74
2022/03/25 12:37:39;;;;;;;24.23;20.92;;;28.50;27.90;;;;;;4954615;28;20193;-74
2022/03/25 12:40:22;;;;;;;25.25;20.40;;;28.10;27.50;;;;;;4951249;29;20236;-74
2022/03/25 12:42:50;;;;;;;26.38;19.85;;;28.10;27.40;;;;;;4953156;28;20203;-74
2022/03/25 12:45:17;;;;;;;29.75;21.27;;;27.40;28.20;;;;;;4967427;28;20232;-74
2022/03/25 12:47:43;;;;;;;27.90;22.77;;;27.40;28.00;;;;;;4952122;29;20220;-74
2022/03/25 12:50:15;;;;;;;29.63;21.55;;;27.40;27.80;;;;;;4952913;28;20197;-73
2022/03/25 12:52:41;;;;;;;27.38;21.77;;;27.90;28.20;;;;;;4937332;29;20278;-74
2022/03/25 12:55:09;;;;;;;28.23;21.20;;;28.80;27.60;;;;;;4936511;29;20261;-74
2022/03/25 12:57:37;;;;;;;28.63;22.63;;;29.60;26.60;;;;;;4936144;29;20217;-73
2022/03/25 13:00:06;;;;;;;28.73;21.60;;;29.80;26.10;;;;;;4936349;29;20695;-75
2022/03/25 13:02:35;;;;;;;27.50;23.40;;;29.30;26.50;;;;;;4934487;29;20237;-74
2022/03/25 13:05:13;;;;;;;26.17;22.08;;;30.30;25.80;;;;;;4936283;29;20221;-74
2022/03/25 13:07:42;;;;;;;25.02;21.45;;;30.50;25.20;;;;;;4935915;29;20220;-74
2022/03/25 13:10:10;;;;;;;30.05;22.25;;;30.60;26.20;;;;;;4937197;29;20274;-74
2022/03/25 13:12:38;;;;;;;27.17;21.40;;;30.40;26.60;;;;;;4969937;28;20209;-75
2022/03/25 13:15:06;;;;;;;28.45;22.35;;;30.00;26.80;;;;;;4955218;28;20189;-75
2022/03/25 13:17:46;;;;;;;23.27;20.27;;;30.30;26.50;;;;;;4953864;29;20193;-75
2022/03/25 13:20:28;;;;;;;25.27;19.70;;;31.00;26.30;;;;;;4969669;28;20620;-75
2022/03/25 13:23:08;;;;;;;25.20;19.58;;;30.40;25.60;;;;;;4934579;29;20189;-75
2022/03/25 13:25:47;;;;;;;26.52;20.48;;;29.80;26.10;;;;;;4935823;29;20677;-75
2022/03/25 13:28:15;;;;;;;24.70;18.85;;;29.60;25.70;;;;;;4934071;29;20276;-74
2022/03/25 13:30:44;;;;;;;22.08;19.05;;;29.50;25.70;;;;;;4938589;29;20198;-74
2022/03/25 13:33:12;;;;;;;27.35;19.65;;;29.90;25.80;;;;;;4954804;28;20189;-74
2022/03/25 13:35:44;;;;;;;23.45;19.33;;;30.80;24.70;;;;;;4954912;28;20247;-75
2022/03/25 13:38:16;;;;;;;22.92;19.10;;;30.70;25.00;;;;;;4954424;29;20196;-75
2022/03/25 13:40:46;;;;;;;25.13;20.00;;;30.70;24.70;;;;;;4948839;28;20217;-76
2022/03/25 13:43:14;;;;;;;25.73;20.05;;;30.20;24.70;;;;;;4955922;28;20188;-76
2022/03/25 13:45:57;;;;;;;26.38;21.63;;;29.60;25.20;;;;;;4935626;29;20182;-75
2022/03/25 13:48:23;;;;;;;24.05;20.00;;;29.30;25.30;;;;;;4977106;28;20196;-75
2022/03/25 13:50:55;;;;;;;23.08;19.50;;;28.80;25.20;;;;;;4966972;28;20756;-74
2022/03/25 13:53:35;;;;;;;25.27;20.10;;;28.50;25.60;;;;;;4955763;28;20190;-75
2022/03/25 13:56:21;;;;;;;27.58;19.48;;;27.80;26.90;;;;;;4955984;29;20877;-74
2022/03/25 13:58:49;;;;;;;25.50;20.70;;;27.00;26.70;;;;;;4954589;29;20190;-74
2022/03/25 14:01:16;;;;;;;26.33;19.27;;;26.90;27.20;;;;;;4948796;28;20744;-72
2022/03/25 14:03:45;;;;;;;26.63;21.30;;;26.70;26.90;;;;;;4952844;29;20181;-73
2022/03/25 14:06:14;;;;;;;33.03;21.90;;;25.90;28.10;;;;;;4953227;28;20733;-73
2022/03/25 14:08:43;;;;;;;26.98;22.05;;;26.00;27.90;;;;;;4954215;28;20332;-73
2022/03/25 14:11:12;;;;;;;28.38;22.10;;;25.90;27.80;;;;;;4946052;29;20202;-73
2022/03/25 14:13:58;;;;;;;26.17;20.50;;;26.30;27.30;;;;;;4933951;29;20190;-73
2022/03/25 14:16:26;;;;;;;25.15;20.63;;;27.20;27.20;;;;;;4933915;29;20201;-73
2022/03/25 14:18:53;;;;;;;27.88;19.33;;;27.40;27.00;;;;;;4934853;29;20182;-74
2022/03/25 14:21:28;;;;;;;25.33;19.77;;;27.70;26.00;;;;;;4942641;29;20220;-74
2022/03/25 14:24:30;;;;;;;25.55;19.58;;;27.10;26.70;;;;;;4954050;28;20185;-74
2022/03/25 14:26:40;;;;;;;24.42;19.42;;;26.80;27.00;;;;;;4953870;28;20192;-74
2022/03/25 14:29:09;;;;;;;26.67;21.20;;;26.90;26.70;;;;;;4953674;28;20173;-74
2022/03/25 14:31:39;;;;;;;28.05;18.80;;;27.30;27.00;;;;;;4943500;29;20574;-74
2022/03/25 14:34:06;;;;;;;24.45;19.02;;;27.80;25.70;;;;;;4933773;29;20190;-73
2022/03/25 14:36:32;;;;;;;23.48;19.50;;;27.30;25.60;;;;;;4933552;29;20193;-73
2022/03/25 14:38:59;;;;;;;30.33;20.45;;;27.20;26.40;;;;;;4933119;29;20186;-74
2022/03/25 14:41:27;;;;;;;24.67;19.98;;;27.50;26.50;;;;;;4942538;29;20244;-74
2022/03/25 14:44:05;;;;;;;23.83;20.38;;;28.30;25.50;;;;;;4953802;28;20189;-74
2022/03/25 14:46:31;;;;;;;25.25;19.52;;;28.60;25.40;;;;;;4953784;28;20557;-74
2022/03/25 14:48:57;;;;;;;27.23;20.75;;;29.00;24.90;;;;;;4953222;28;20173;-74
2022/03/25 14:51:22;;;;;;;24.10;21.50;;;28.60;25.30;;;;;;4945308;28;20270;-74
2022/03/25 14:53:48;;;;;;;25.10;19.88;;;28.50;25.30;;;;;;4953160;28;20185;-74
2022/03/25 14:56:14;;;;;;;23.63;20.08;;;29.60;24.60;;;;;;4961312;28;20688;-74
2022/03/25 14:58:40;;;;;;;24.50;19.33;;;29.20;24.70;;;;;;4972383;28;20208;-73
2022/03/25 15:01:06;;;;;;;26.77;21.17;;;28.70;24.90;;;;;;4972471;28;20710;-74
2022/03/25 15:03:32;;;;;;;27.42;21.05;;;27.40;25.80;;;;;;4953067;28;20186;-74
2022/03/25 15:05:58;;;;;;;28.13;20.48;;;26.60;26.40;;;;;;4953163;28;20237;-74
2022/03/25 15:08:25;;;;;;;27.27;20.70;;;26.60;26.70;;;;;;4951765;29;20245;-74
2022/03/25 15:10:50;;;;;;;28.63;20.90;;;26.50;26.40;;;;;;4951853;29;20762;-73
2022/03/25 15:13:16;;;;;;;24.20;20.73;;;26.30;26.40;;;;;;4951179;28;20556;-74
2022/03/25 15:15:45;;;;;;;29.20;20.88;;;25.60;27.10;;;;;;4959700;28;20189;-74
2022/03/25 15:18:16;;;;;;;26.70;21.33;;;25.20;27.60;;;;;;4977638;28;20182;-73
2022/03/25 15:20:43;;;;;;;25.55;20.95;;;24.90;27.40;;;;;;4942349;29;20214;-73
2022/03/25 15:23:09;;;;;;;28.85;20.60;;;24.80;28.40;;;;;;4934568;28;20190;-73
2022/03/25 15:25:36;;;;;;;24.23;20.25;;;24.30;28.50;;;;;;4945705;29;20182;-73
2022/03/25 15:28:02;;;;;;;26.85;20.00;;;24.20;28.70;;;;;;4936802;29;20182;-73
2022/03/25 15:35:58;;;;;;;30.77;20.02;;;24.90;28.20;;;;;;4953318;29;20566;-73
2022/03/25 15:38:23;;;;;;;29.52;21.08;;;24.70;28.50;;;;;;4968465;28;20186;-73
2022/03/25 15:40:49;;;;;;;33.22;23.10;;;24.60;28.90;;;;;;4967948;28;20244;-73
2022/03/25 15:43:15;;;;;;;27.38;19.92;;;25.10;28.60;;;;;;4939218;28;20575;-73
2022/03/25 15:45:45;;;;;;;25.38;21.15;;;25.50;28.10;;;;;;4933954;29;20189;-73
2022/03/25 15:48:11;;;;;;;29.88;22.88;;;25.80;27.90;;;;;;4933161;29;20249;-73
2022/03/25 15:50:37;;;;;;;33.95;23.67;;;25.70;28.20;;;;;;4932443;29;20719;-73
2022/03/25 15:53:04;;;;;;;27.52;21.60;;;25.80;27.90;;;;;;4944929;29;20236;-73
2022/03/25 15:55:30;;;;;;;25.65;21.08;;;25.80;27.80;;;;;;4952497;28;20182;-74
2022/03/25 15:57:59;;;;;;;28.38;23.67;;;25.90;27.80;;;;;;4952113;28;20721;-74
2022/03/25 16:00:29;;;;;;;27.88;23.48;;;25.90;27.90;;;;;;4952175;28;20293;-73
2022/03/25 16:02:56;;;;;;;30.55;24.10;;;25.50;28.00;;;;;;4941124;28;20186;-74
2022/03/25 16:05:22;;;;;;;29.17;22.17;;;25.50;28.00;;;;;;4933348;29;20182;-73
2022/03/25 16:07:48;;;;;;;26.13;20.75;;;24.90;28.20;;;;;;4932752;29;20198;-73
2022/03/25 16:10:15;;;;;;;30.90;22.13;;;24.80;28.50;;;;;;4933242;29;20190;-74
2022/03/25 16:12:42;;;;;;;28.25;21.80;;;25.20;28.60;;;;;;4941834;29;20186;-73
2022/03/25 16:15:09;;;;;;;29.67;23.48;;;25.20;28.20;;;;;;4952399;28;20193;-73
2022/03/25 16:17:35;;;;;;;31.33;22.08;;;24.90;28.40;;;;;;4966659;28;20185;-73
2022/03/25 16:20:01;;;;;;;29.17;22.42;;;24.70;28.70;;;;;;4952450;28;20220;-73
2022/03/25 16:22:27;;;;;;;29.23;22.40;;;24.30;29.50;;;;;;4945682;29;20202;-73
2022/03/25 16:24:54;;;;;;;27.73;22.25;;;24.20;29.00;;;;;;4934829;29;20635;-73
2022/03/25 16:27:23;;;;;;;33.70;23.33;;;24.00;29.70;;;;;;4936834;29;20182;-72
2022/03/25 16:29:50;;;;;;;27.33;20.77;;;23.20;30.10;;;;;;4936919;29;20530;-73
2022/03/25 16:32:17;;;;;;;28.40;19.75;;;22.50;30.50;;;;;;4941723;29;20205;-72
2022/03/25 16:34:43;;;;;;;26.95;19.80;;;21.90;31.60;;;;;;4971046;28;20264;-73
2022/03/25 16:37:13;;;;;;;31.63;21.95;;;21.40;32.70;;;;;;4955950;28;20190;-73
2022/03/25 16:39:39;;;;;;;29.55;21.10;;;21.10;33.00;;;;;;4955887;29;20225;-73
2022/03/25 16:42:07;;;;;;;30.60;23.23;;;20.70;33.60;;;;;;4967771;28;20281;-74
2022/03/25 16:44:32;;;;;;;28.40;22.90;;;20.50;34.50;;;;;;4951992;29;20245;-73
2022/03/25 16:47:01;;;;;;;29.75;23.60;;;20.50;34.70;;;;;;4950293;29;20182;-73
2022/03/25 16:49:31;;;;;;;34.10;26.07;;;20.50;34.90;;;;;;4956011;28;20773;-73